Time;durP1;ratioP1;P1;durP2;ratioP2;P2;SDS_P1;SDS_P2;PMS_P1;PMS_P2;Temp;Humidity;BMP_temperature;BMP_pressure;BME280_temperature;BME280_humidity;BME280_pressure;Samples;Min_cycle;Max_cycle;Signal;HPM_P1;HPM_P2
2021/07/29 00:59:40;;;;;;;6.55;3.50;;;17.00;99.90;;;;;;5833204;24;20191;-85
2021/07/29 01:03:15;;;;;;;6.13;3.95;;;17.10;99.90;;;;;;5838598;24;20183;-86
2021/07/29 01:06:21;;;;;;;5.90;3.30;;;17.20;99.90;;;;;;5831958;24;20922;-86
2021/07/29 01:09:26;;;;;;;4.05;3.58;;;17.10;99.90;;;;;;5822073;24;20187;-86
2021/07/29 01:12:27;;;;;;;;;;;;;;;;;;;;;
2021/07/29 01:15:52;;;;;;;;;;;;;;;;;;;;;
2021/07/29 01:22:32;;;;;;;;;;;;;;;;;;;;;
2021/07/29 01:31:09;;;;;;;6.50;4.05;;;17.20;99.90;;;;;;6105288;23;20421;-86
2021/07/29 01:36:21;;;;;;;4.30;3.90;;;17.30;99.90;;;;;;6108076;23;20277;-86
2021/07/29 01:42:16;;;;;;;;;;;;;;;;;;;;;
2021/07/29 01:44:50;;;;;;;4.60;3.50;;;17.30;99.90;;;;;;6125521;23;20233;-87
2021/07/29 01:48:04;;;;;;;4.03;3.63;;;17.10;99.90;;;;;;6123708;23;20445;-86
2021/07/29 01:53:25;;;;;;;6.67;3.87;;;17.10;99.90;;;;;;6109736;23;20201;-86
2021/07/29 02:02:56;;;;;;;6.53;3.50;;;16.90;99.90;;;;;;6110362;23;20188;-87
2021/07/29 02:05:37;;;;;;;3.90;3.50;;;16.90;99.90;;;;;;6111969;23;20517;-86
2021/07/29 02:08:31;;;;;;;5.35;3.88;;;16.90;99.90;;;;;;6111370;23;20167;-86
2021/07/29 02:11:30;;;;;;;11.13;3.72;;;16.90;99.90;;;;;;6113150;23;20182;-86
2021/07/29 02:17:07;;;;;;;4.18;3.00;;;16.90;99.90;;;;;;6129494;23;20207;-86
2021/07/29 02:19:54;;;;;;;5.65;4.05;;;16.90;99.90;;;;;;6144667;23;20180;-86
2021/07/29 02:22:35;;;;;;;4.90;3.45;;;16.90;99.90;;;;;;6143951;23;20174;-85
2021/07/29 02:25:28;;;;;;;7.30;3.50;;;16.90;99.90;;;;;;6144282;23;20186;-87
2021/07/29 02:28:15;;;;;;;;;;;;;;;;;;;;;
2021/07/29 02:31:14;;;;;;;4.45;2.70;;;16.90;99.90;;;;;;6153642;23;20219;-86
2021/07/29 03:06:59;;;;;;;;;;;;;;;;;;;;;
2021/07/29 03:10:13;;;;;;;;;;;;;;;;;;;;;
2021/07/29 03:13:29;;;;;;;8.35;3.92;;;16.80;99.90;;;;;;6198586;23;20213;-86
2021/07/29 03:19:29;;;;;;;3.63;2.88;;;16.80;99.90;;;;;;5926268;23;20183;-85
2021/07/29 03:22:48;;;;;;;;;;;;;;;;;;;;;
2021/07/29 03:56:29;;;;;;;4.33;3.27;;;17.00;99.90;;;;;;6084083;23;20469;-86
2021/07/29 04:40:36;;;;;;;5.38;3.55;;;17.10;99.90;;;;;;6016661;23;20268;-84
2021/07/29 04:50:01;;;;;;;6.43;3.60;;;18.30;99.90;;;;;;5933824;24;20418;-85
2021/07/29 04:55:26;;;;;;;7.17;3.10;;;18.70;99.90;;;;;;5914340;23;20459;-85
2021/07/29 04:58:06;;;;;;;4.37;3.60;;;19.60;99.90;;;;;;6053721;23;20432;-84
2021/07/29 05:00:33;;;;;;;7.50;3.77;;;20.10;99.90;;;;;;6231031;23;20407;-84
2021/07/29 05:03:01;;;;;;;5.60;3.67;;;20.20;99.90;;;;;;6226893;23;20407;-82
2021/07/29 05:05:28;;;;;;;4.30;3.90;;;20.70;99.90;;;;;;6226730;23;20417;-83
2021/07/29 05:07:55;;;;;;;5.43;2.73;;;20.90;99.90;;;;;;6230339;23;20495;-83
2021/07/29 05:10:23;;;;;;;10.13;5.93;;;21.10;99.90;;;;;;6234852;23;20411;-84
2021/07/29 05:12:50;;;;;;;8.67;5.10;;;21.50;99.90;;;;;;6238459;23;20507;-88
2021/07/29 05:15:18;;;;;;;6.90;3.10;;;21.50;99.90;;;;;;6240777;23;20438;-84
2021/07/29 05:17:45;;;;;;;7.73;3.17;;;21.00;99.90;;;;;;6236160;23;20422;-84
2021/07/29 05:20:15;;;;;;;6.20;3.30;;;20.00;99.90;;;;;;6230985;23;20458;-85
2021/07/29 05:22:43;;;;;;;4.77;3.90;;;19.60;99.90;;;;;;6230587;23;20415;-87
2021/07/29 05:25:11;;;;;;;6.37;3.63;;;19.50;99.90;;;;;;6240595;23;20403;-86
2021/07/29 05:28:32;;;;;;;5.67;3.27;;;19.70;99.90;;;;;;6240495;23;20494;-86
2021/07/29 05:31:03;;;;;;;5.97;3.70;;;19.80;99.90;;;;;;6232045;23;20430;-86
2021/07/29 05:33:30;;;;;;;6.90;3.10;;;19.50;99.90;;;;;;6242795;23;20395;-86
2021/07/29 05:35:57;;;;;;;5.40;3.47;;;20.50;99.90;;;;;;6242610;23;20476;-87
2021/07/29 05:38:24;;;;;;;5.53;3.30;;;21.60;99.90;;;;;;6243016;23;20404;-88
2021/07/29 05:40:57;;;;;;;6.50;3.40;;;22.20;99.10;;;;;;6243691;23;20421;-89
2021/07/29 05:43:25;;;;;;;12.50;6.83;;;22.30;98.00;;;;;;6237747;23;20405;-86
2021/07/29 05:45:53;;;;;;;4.07;3.40;;;22.70;98.00;;;;;;6233379;23;20415;-86
2021/07/29 05:48:21;;;;;;;5.13;4.57;;;23.00;95.80;;;;;;6237841;23;20477;-83
2021/07/29 05:50:48;;;;;;;5.93;2.80;;;23.20;96.10;;;;;;6228309;23;20415;-86
2021/07/29 05:53:41;;;;;;;11.33;5.20;;;23.60;94.40;;;;;;6241522;23;20445;-86
2021/07/29 05:56:16;;;;;;;4.80;3.23;;;24.10;94.20;;;;;;6242290;23;20498;-87
2021/07/29 05:58:44;;;;;;;4.53;2.83;;;23.70;93.50;;;;;;6228087;23;20379;-85
2021/07/29 06:01:11;;;;;;;7.10;2.90;;;23.50;93.90;;;;;;6230036;23;20414;-86
2021/07/29 06:03:41;;;;;;;3.33;2.30;;;23.90;93.80;;;;;;6227664;23;20915;-86
2021/07/29 06:06:09;;;;;;;4.03;3.43;;;24.00;93.50;;;;;;6232703;23;20438;-86
2021/07/29 06:08:38;;;;;;;8.70;4.07;;;24.00;93.10;;;;;;6237955;23;20407;-87
2021/07/29 06:11:05;;;;;;;6.67;5.57;;;23.80;93.40;;;;;;6241772;23;20391;-89
2021/07/29 06:13:33;;;;;;;10.90;7.30;;;23.80;93.60;;;;;;6243757;23;20410;-91
2021/07/29 06:16:02;;;;;;;8.67;4.30;;;24.20;93.00;;;;;;6243184;23;20485;-90
2021/07/29 06:18:37;;;;;;;15.90;10.00;;;24.60;93.00;;;;;;6243699;23;20413;-91
2021/07/29 06:21:13;;;;;;;10.90;2.60;;;25.00;92.30;;;;;;6233792;23;20390;-86
2021/07/29 06:23:40;;;;;;;8.20;3.40;;;24.20;92.30;;;;;;6231826;23;20406;-86
2021/07/29 06:26:12;;;;;;;3.93;2.87;;;23.30;93.00;;;;;;6228688;23;20446;-86
2021/07/29 06:28:39;;;;;;;9.90;5.33;;;22.50;94.40;;;;;;6230262;23;20442;-86
2021/07/29 06:31:09;;;;;;;6.53;4.70;;;21.80;95.60;;;;;;6235479;23;20458;-86
2021/07/29 06:33:37;;;;;;;6.13;3.63;;;21.60;97.70;;;;;;6230832;23;20775;-86
2021/07/29 06:36:06;;;;;;;5.30;3.43;;;21.60;97.80;;;;;;6228036;23;20896;-85
2021/07/29 06:38:34;;;;;;;6.10;3.20;;;21.10;98.50;;;;;;6230273;23;20401;-85
2021/07/29 06:43:46;;;;;;;6.53;3.23;;;21.10;98.80;;;;;;6231728;23;20408;-84
2021/07/29 06:46:14;;;;;;;5.00;2.90;;;21.40;97.60;;;;;;6225215;23;20426;-86
2021/07/29 06:48:42;;;;;;;10.00;2.40;;;21.80;96.90;;;;;;6229652;23;20505;-85
2021/07/29 06:51:16;;;;;;;8.40;2.80;;;21.90;95.20;;;;;;6226870;23;20398;-86
2021/07/29 06:53:43;;;;;;;5.70;2.80;;;21.70;96.40;;;;;;6227064;23;20501;-85
2021/07/29 06:56:10;;;;;;;3.23;2.13;;;22.50;95.10;;;;;;6225472;23;20496;-86
2021/07/29 06:58:40;;;;;;;7.13;2.53;;;23.00;94.30;;;;;;6229748;23;20490;-86
2021/07/29 07:01:09;;;;;;;4.63;2.87;;;22.50;94.30;;;;;;6235480;23;20425;-87
2021/07/29 07:03:37;;;;;;;4.70;3.10;;;22.40;95.70;;;;;;6234191;23;20716;-86
2021/07/29 07:06:05;;;;;;;4.37;2.90;;;22.80;94.50;;;;;;6229673;23;20425;-86
2021/07/29 07:08:35;;;;;;;6.30;2.90;;;22.70;93.90;;;;;;6228769;23;20418;-87
2021/07/29 07:11:04;;;;;;;2.90;1.97;;;23.00;94.00;;;;;;6229042;23;20734;-86
2021/07/29 07:13:31;;;;;;;4.33;2.93;;;22.60;93.90;;;;;;6231896;23;20724;-85
2021/07/29 07:15:59;;;;;;;7.37;2.47;;;22.40;93.90;;;;;;6231772;23;20469;-86
2021/07/29 07:18:28;;;;;;;5.83;2.37;;;21.80;94.40;;;;;;6231768;23;20477;-85
2021/07/29 07:24:19;;;;;;;5.60;2.10;;;22.00;93.30;;;;;;6240099;23;20382;-87
2021/07/29 07:27:05;;;;;;;6.27;2.17;;;22.20;92.60;;;;;;6232413;23;20461;-86
2021/07/29 07:29:35;;;;;;;5.57;1.93;;;22.90;91.70;;;;;;6232351;23;20746;-88
2021/07/29 07:32:06;;;;;;;7.43;2.27;;;23.00;90.80;;;;;;6231318;23;20452;-86
2021/07/29 07:34:34;;;;;;;9.27;2.10;;;23.30;90.80;;;;;;6234061;23;20450;-86
2021/07/29 07:37:05;;;;;;;4.10;3.27;;;24.20;90.00;;;;;;6228500;23;20452;-86
2021/07/29 07:39:37;;;;;;;3.13;2.27;;;25.00;89.40;;;;;;6228787;23;20854;-86
2021/07/29 07:42:06;;;;;;;2.43;1.90;;;24.80;87.40;;;;;;6234065;23;20439;-85
2021/07/29 07:44:34;;;;;;;3.80;2.00;;;24.30;88.10;;;;;;6232339;23;20413;-87
2021/07/29 07:47:04;;;;;;;4.27;2.00;;;24.60;88.90;;;;;;6233201;23;20419;-87
2021/07/29 17:24:25;;;;;;;6.20;3.73;;;21.20;92.70;;;;;;6078148;23;20410;-87
2021/07/29 17:26:53;;;;;;;5.43;3.03;;;21.10;92.70;;;;;;6179775;23;20443;-86
2021/07/29 17:29:21;;;;;;;6.20;2.17;;;21.10;93.10;;;;;;6205866;23;20409;-86
2021/07/29 17:31:48;;;;;;;7.43;3.13;;;21.10;92.90;;;;;;6201942;23;20433;-86
2021/07/29 17:34:17;;;;;;;7.40;2.90;;;21.10;92.80;;;;;;6203939;23;20408;-86
2021/07/29 17:36:44;;;;;;;5.97;2.10;;;21.00;92.70;;;;;;6203792;23;20448;-86
2021/07/29 17:39:12;;;;;;;4.90;2.63;;;21.00;92.80;;;;;;6204921;23;20459;-85
2021/07/29 17:41:41;;;;;;;5.37;3.20;;;21.00;92.60;;;;;;6204097;23;20485;-86
2021/07/29 17:44:11;;;;;;;3.63;2.40;;;21.00;92.80;;;;;;6205316;23;20466;-85
2021/07/29 17:46:40;;;;;;;8.13;2.67;;;21.00;92.60;;;;;;6206503;23;20497;-86
2021/07/29 17:49:10;;;;;;;7.53;2.50;;;21.00;92.80;;;;;;6201361;23;20424;-85
2021/07/29 17:51:38;;;;;;;5.10;2.60;;;20.90;92.60;;;;;;6202902;23;20426;-86
2021/07/29 17:54:05;;;;;;;7.67;3.00;;;21.00;92.80;;;;;;6203182;23;20433;-86
2021/07/29 17:56:33;;;;;;;9.33;2.80;;;21.00;93.20;;;;;;6202920;23;20440;-86
2021/07/29 17:59:02;;;;;;;5.60;2.70;;;20.90;93.20;;;;;;6202381;23;20430;-86
2021/07/29 18:01:29;;;;;;;7.00;3.37;;;20.80;93.60;;;;;;6202491;23;20429;-88
2021/07/29 18:03:56;;;;;;;8.00;2.90;;;20.70;93.80;;;;;;6202018;23;20404;-86
2021/07/29 18:06:26;;;;;;;6.20;2.90;;;20.60;93.90;;;;;;6202871;23;20542;-86
2021/07/29 18:08:55;;;;;;;6.70;3.97;;;20.50;94.20;;;;;;6202547;23;20442;-86
2021/07/29 18:11:23;;;;;;;7.40;3.40;;;20.40;94.50;;;;;;6204247;23;20407;-86
2021/07/29 18:13:51;;;;;;;7.03;3.17;;;20.40;94.80;;;;;;6203235;23;20415;-85
2021/07/29 18:19:06;;;;;;;5.73;3.00;;;20.50;95.00;;;;;;6205461;23;20438;-87
2021/07/29 18:21:34;;;;;;;5.20;2.73;;;20.40;94.70;;;;;;6207389;23;21135;-86
2021/07/29 18:24:01;;;;;;;9.13;2.83;;;20.50;94.90;;;;;;6204459;23;20495;-86
2021/07/29 18:26:29;;;;;;;3.13;2.10;;;20.40;95.20;;;;;;6202167;23;20447;-86
2021/07/29 18:28:58;;;;;;;5.03;3.10;;;20.40;95.40;;;;;;6203725;23;20467;-87
2021/07/29 18:31:29;;;;;;;6.90;3.17;;;20.30;95.80;;;;;;6205107;23;20751;-85
2021/07/29 18:33:57;;;;;;;12.47;3.77;;;20.20;95.90;;;;;;6200844;23;20430;-86
2021/07/29 18:36:24;;;;;;;8.93;2.87;;;20.10;96.20;;;;;;6200446;23;20968;-87
2021/07/29 18:38:53;;;;;;;5.93;2.67;;;20.10;96.50;;;;;;6202691;23;20424;-86
2021/07/29 18:41:21;;;;;;;7.13;3.43;;;20.10;96.70;;;;;;6206843;23;20430;-86
2021/07/29 18:43:48;;;;;;;10.90;3.73;;;20.00;96.50;;;;;;6205166;23;20415;-86
2021/07/29 18:46:15;;;;;;;7.33;3.10;;;20.00;96.80;;;;;;6204864;23;20435;-85
2021/07/29 18:48:44;;;;;;;20.03;4.20;;;20.00;96.80;;;;;;6206136;23;20419;-85
2021/07/29 18:51:14;;;;;;;9.13;2.90;;;19.90;97.10;;;;;;6205744;23;20411;-85
2021/07/29 18:53:42;;;;;;;5.93;2.90;;;19.90;97.40;;;;;;6205122;23;20415;-82
2021/07/29 18:56:11;;;;;;;5.83;3.00;;;19.80;97.50;;;;;;6205882;23;20454;-89
2021/07/29 18:58:41;;;;;;;11.63;3.67;;;19.80;97.70;;;;;;6212705;23;20451;-90
2021/07/29 19:01:10;;;;;;;5.90;3.17;;;19.80;98.30;;;;;;6213002;23;20434;-89
2021/07/29 19:03:39;;;;;;;5.50;2.53;;;19.70;97.90;;;;;;6209618;23;20450;-84
2021/07/29 19:06:09;;;;;;;7.63;3.03;;;19.70;98.60;;;;;;6203657;23;20438;-85
2021/07/29 19:08:36;;;;;;;3.60;2.43;;;19.60;98.50;;;;;;6201557;23;20479;-86
2021/07/29 19:11:04;;;;;;;7.70;2.83;;;19.60;98.60;;;;;;6200527;23;20411;-85
2021/07/29 19:13:34;;;;;;;8.20;3.50;;;19.50;98.60;;;;;;6206686;23;20428;-85
2021/07/29 19:16:01;;;;;;;8.70;2.90;;;19.40;99.10;;;;;;6206238;23;20449;-87
2021/07/29 19:18:29;;;;;;;8.50;3.07;;;19.40;99.00;;;;;;6205620;23;20414;-85
2021/07/29 19:20:56;;;;;;;6.27;3.07;;;19.30;99.60;;;;;;6204795;23;20862;-86
2021/07/29 19:23:25;;;;;;;8.30;4.00;;;19.30;99.40;;;;;;6203269;23;20409;-86
2021/07/29 19:25:58;;;;;;;8.00;3.00;;;19.20;99.80;;;;;;6203735;23;20407;-85
2021/07/29 19:28:25;;;;;;;6.17;2.90;;;19.20;99.80;;;;;;6202410;23;20403;-85
2021/07/29 19:30:54;;;;;;;6.10;3.27;;;19.10;99.90;;;;;;6201947;23;20419;-83
2021/07/29 19:33:21;;;;;;;14.90;4.80;;;19.10;99.90;;;;;;6210618;23;20404;-85
2021/07/29 19:35:48;;;;;;;6.57;3.10;;;19.10;99.90;;;;;;6210989;23;20522;-84
2021/07/29 19:38:19;;;;;;;5.77;2.73;;;19.00;99.90;;;;;;6198062;23;20482;-84
2021/07/29 19:40:48;;;;;;;9.67;3.73;;;19.10;99.90;;;;;;6199570;23;20502;-85
2021/07/29 19:43:15;;;;;;;9.10;3.40;;;19.10;99.90;;;;;;6202891;23;20418;-84
2021/07/29 19:45:42;;;;;;;9.60;3.10;;;19.00;99.90;;;;;;6200494;23;20401;-86
2021/07/29 19:48:09;;;;;;;4.90;2.40;;;18.90;99.90;;;;;;6199667;23;20413;-85
2021/07/29 19:50:37;;;;;;;10.10;3.50;;;18.80;99.90;;;;;;6202957;23;20418;-86
2021/07/29 19:53:06;;;;;;;9.67;3.93;;;18.80;99.90;;;;;;6203742;23;20413;-86
2021/07/29 19:55:33;;;;;;;8.05;3.78;;;18.70;99.90;;;;;;6201176;23;20394;-84
2021/07/29 19:58:17;;;;;;;10.80;4.00;;;18.70;99.90;;;;;;6198207;23;20255;-85
2021/07/29 20:00:44;;;;;;;5.57;2.80;;;18.70;99.90;;;;;;6199331;23;20392;-87
2021/07/29 20:03:11;;;;;;;8.57;3.30;;;18.60;99.90;;;;;;6197478;23;20185;-84
2021/07/29 20:05:38;;;;;;;9.40;4.13;;;18.60;99.90;;;;;;6196516;23;20422;-84
2021/07/29 20:08:06;;;;;;;6.40;2.87;;;18.60;99.90;;;;;;6195939;23;20492;-85
2021/07/29 20:10:34;;;;;;;10.67;3.60;;;18.50;99.80;;;;;;6197639;23;20399;-84
2021/07/29 20:13:05;;;;;;;12.00;2.83;;;18.50;99.70;;;;;;6197271;23;20419;-85
2021/07/29 20:15:33;;;;;;;6.20;3.53;;;18.50;99.20;;;;;;6199006;23;20382;-85
2021/07/29 20:18:00;;;;;;;4.43;2.50;;;18.50;99.70;;;;;;6200652;23;20513;-84
2021/07/29 20:20:34;;;;;;;6.90;2.95;;;18.50;99.60;;;;;;6206537;23;20398;-84
2021/07/29 20:23:02;;;;;;;12.07;3.20;;;18.50;99.00;;;;;;6206449;23;20205;-86
2021/07/29 20:25:36;;;;;;;8.00;3.08;;;18.40;98.90;;;;;;6206301;23;20411;-86
2021/07/29 20:28:05;;;;;;;7.83;3.00;;;18.40;98.60;;;;;;6210752;23;20166;-86
2021/07/29 20:30:37;;;;;;;5.33;3.03;;;18.30;98.50;;;;;;6212544;23;20409;-88
2021/07/29 20:33:07;;;;;;;5.57;2.73;;;18.30;99.20;;;;;;6212990;23;20403;-87
2021/07/29 20:35:34;;;;;;;6.13;3.00;;;18.30;99.20;;;;;;6212403;23;20422;-88
2021/07/29 20:38:02;;;;;;;6.07;2.83;;;18.30;98.90;;;;;;6212899;23;20465;-87
2021/07/29 20:40:29;;;;;;;5.68;2.75;;;18.20;99.30;;;;;;6212543;23;20417;-87
2021/07/29 20:42:57;;;;;;;13.50;3.08;;;18.10;98.90;;;;;;6212234;23;20164;-87
2021/07/29 20:45:26;;;;;;;9.13;3.10;;;18.10;99.10;;;;;;6211031;23;20217;-85
2021/07/29 20:48:07;;;;;;;4.80;2.75;;;18.10;99.40;;;;;;6212468;23;20189;-88
2021/07/29 20:50:38;;;;;;;7.60;3.20;;;18.00;99.70;;;;;;6211800;23;20152;-85
2021/07/29 20:53:07;;;;;;;5.95;2.90;;;18.00;99.90;;;;;;6211328;23;20174;-87
2021/07/29 20:55:43;;;;;;;5.00;3.03;;;17.90;99.10;;;;;;6213101;23;20166;-85
2021/07/29 20:58:25;;;;;;;7.25;2.90;;;17.90;99.80;;;;;;6213440;23;20209;-85
2021/07/29 21:01:02;;;;;;;11.73;2.95;;;17.90;99.90;;;;;;6212953;23;20186;-87
2021/07/29 21:03:32;;;;;;;4.72;2.35;;;17.70;99.20;;;;;;6213363;23;20176;-85
2021/07/29 21:06:04;;;;;;;6.82;2.90;;;17.70;99.50;;;;;;6213248;23;20178;-87
2021/07/29 21:08:53;;;;;;;4.45;3.00;;;17.70;99.90;;;;;;6213271;23;20175;-88
2021/07/29 21:11:21;;;;;;;6.57;2.45;;;17.60;99.90;;;;;;6212849;23;20155;-87
2021/07/29 21:14:05;;;;;;;8.03;3.43;;;17.60;99.90;;;;;;6212964;23;20167;-88
2021/07/29 21:16:42;;;;;;;7.15;2.30;;;17.40;99.90;;;;;;6212269;23;20447;-87
2021/07/29 21:19:13;;;;;;;9.38;2.45;;;17.60;99.90;;;;;;6212162;23;20161;-86
2021/07/29 21:21:44;;;;;;;9.02;2.70;;;17.40;99.90;;;;;;6212634;23;20176;-88
2021/07/29 21:24:13;;;;;;;4.95;3.15;;;17.60;99.90;;;;;;6212534;23;20153;-88
2021/07/29 21:26:44;;;;;;;4.45;2.30;;;17.60;99.90;;;;;;6210564;23;20194;-87
2021/07/29 21:32:25;;;;;;;9.05;2.85;;;17.50;99.90;;;;;;6207010;23;20219;-87
2021/07/29 21:34:58;;;;;;;5.30;2.92;;;17.40;99.90;;;;;;6206071;23;20177;-88
2021/07/29 21:37:32;;;;;;;5.75;2.80;;;17.30;99.90;;;;;;6208890;23;20194;-86
2021/07/29 21:40:03;;;;;;;8.90;3.55;;;17.40;99.90;;;;;;6204042;23;20171;-88
2021/07/29 21:42:44;;;;;;;3.65;2.92;;;17.40;99.90;;;;;;6206977;23;20178;-88
2021/07/29 21:45:15;;;;;;;6.45;3.22;;;17.30;99.90;;;;;;6207066;23;20238;-88
2021/07/29 21:47:53;;;;;;;6.35;2.63;;;17.40;99.90;;;;;;6207927;23;20241;-87
2021/07/29 21:50:25;;;;;;;7.15;4.00;;;17.30;99.90;;;;;;6208771;23;20184;-87
2021/07/29 21:52:53;;;;;;;11.63;2.97;;;17.30;99.90;;;;;;6207069;23;20177;-87
2021/07/29 21:55:22;;;;;;;6.68;3.05;;;17.30;99.90;;;;;;6210460;23;20183;-87
2021/07/29 21:58:06;;;;;;;6.20;3.17;;;17.20;99.90;;;;;;6206543;23;20198;-87
2021/07/29 22:00:42;;;;;;;7.88;2.28;;;17.10;99.90;;;;;;6208695;23;20188;-87
2021/07/29 22:09:22;;;;;;;4.75;2.85;;;17.10;99.90;;;;;;6117719;23;20180;-87
2021/07/29 22:11:54;;;;;;;9.35;3.72;;;16.90;99.90;;;;;;6204833;23;20190;-88
2021/07/29 22:14:33;;;;;;;5.13;3.08;;;17.00;99.90;;;;;;6206450;23;20260;-86
2021/07/29 22:17:05;;;;;;;8.80;4.03;;;17.00;99.90;;;;;;6207590;23;20199;-87
2021/07/29 22:19:37;;;;;;;4.05;2.88;;;16.90;99.90;;;;;;6203619;23;20189;-89
2021/07/29 22:22:12;;;;;;;4.32;2.22;;;16.80;99.90;;;;;;6205001;23;20170;-87
2021/07/29 22:46:28;;;;;;;8.32;3.00;;;16.40;99.90;;;;;;6113691;23;20221;-87
2021/07/29 22:49:41;;;;;;;6.63;3.25;;;16.40;99.90;;;;;;6047500;23;20193;-87
2021/07/29 22:56:07;;;;;;;9.32;3.25;;;16.50;99.90;;;;;;6138288;23;20181;-87
2021/07/29 22:58:53;;;;;;;7.03;3.33;;;16.30;99.90;;;;;;6204884;23;20194;-86
2021/07/29 23:01:47;;;;;;;5.72;3.08;;;16.40;99.90;;;;;;6207516;23;20176;-86
2021/07/29 23:04:48;;;;;;;;;;;;;;;;;;;;;
2021/07/29 23:07:15;;;;;;;7.45;3.50;;;16.30;99.90;;;;;;6204574;23;20490;-89
2021/07/29 23:09:49;;;;;;;8.70;3.97;;;16.20;99.90;;;;;;6204874;23;20163;-87
2021/07/29 23:15:05;;;;;;;8.82;3.45;;;16.20;99.90;;;;;;6203936;23;20169;-86
2021/07/29 23:17:33;;;;;;;6.30;3.15;;;16.20;99.90;;;;;;6207486;23;20210;-86
2021/07/29 23:37:36;;;;;;;9.25;4.10;;;15.40;99.90;;;;;;6228817;23;20242;-86
2021/07/29 23:40:41;;;;;;;10.48;4.65;;;15.40;99.90;;;;;;6237501;23;20175;-84
2021/07/29 23:43:56;;;;;;;7.10;4.22;;;15.30;99.90;;;;;;6217175;23;20164;-87
2021/07/29 23:49:44;;;;;;;8.05;4.57;;;15.10;99.90;;;;;;6235517;23;20183;-87
2021/07/29 23:55:10;;;;;;;8.30;4.03;;;15.10;99.90;;;;;;6237841;23;20204;-87
2021/07/29 23:58:04;;;;;;;7.32;3.92;;;15.00;99.90;;;;;;6239787;23;20207;-87
